Terminal Aerodrome Forecast
Issued by NWS

Home | Current Version | Previous Version | Text Only | Print | Product List | Glossary On
Versions: 1 2 3 4 5 6 7 8 9 10 11 12 13 14 15 16 17 18 19 20 21 22 23 24 25 26 27 28 29 30
000
FTUS45 KBOU 220520
TAFBJC
TAF
KBJC 220520Z 2206/2306 07008KT P6SM FEW120
     FM220700 VRB05KT P6SM FEW120
     FM221500 08008KT P6SM FEW220
     FM222100 05008KT P6SM SCT100 BKN220
     FM230200 12009KT P6SM FEW100 BKN220=

USA.gov is the U.S. government's official web portal to all federal, state and local government web resources and services.